Time;durP1;ratioP1;P1;durP2;ratioP2;P2;SDS_P1;SDS_P2;PMS_P1;PMS_P2;Temp;Humidity;BMP_temperature;BMP_pressure;BME280_temperature;BME280_humidity;BME280_pressure;Samples;Min_cycle;Max_cycle;Signal;HPM_P1;HPM_P2
2023/07/15 18:42:47;;;;;;;6.28;4.50;;;;;;;19.36;100.00;100481.78;5019594;27;20430;-62
2023/07/15 18:45:12;;;;;;;7.13;4.82;;;;;;;19.14;100.00;100488.13;5025808;28;20561;-62
2023/07/15 18:47:38;;;;;;;9.18;5.13;;;;;;;19.05;100.00;100480.31;5025634;28;20084;-63
2023/07/15 18:50:03;;;;;;;8.43;5.80;;;;;;;18.93;100.00;100476.91;5025725;28;20032;-63
2023/07/15 18:52:29;;;;;;;8.27;5.28;;;;;;;18.82;100.00;100470.88;5026032;28;20026;-62
2023/07/15 18:54:54;;;;;;;7.70;4.78;;;;;;;18.80;100.00;100451.63;5022101;28;20087;-63
2023/07/15 18:57:19;;;;;;;8.73;5.18;;;;;;;18.87;100.00;100455.94;5023285;28;20025;-63
2023/07/15 18:59:45;;;;;;;9.55;5.47;;;;;;;18.85;100.00;100442.00;5019317;28;20026;-63
2023/07/15 19:02:10;;;;;;;9.82;5.40;;;;;;;18.88;100.00;100449.84;5016408;28;20072;-63
2023/07/15 19:04:35;;;;;;;10.02;5.22;;;;;;;18.93;100.00;100461.16;5015225;28;20458;-63
2023/07/15 19:07:01;;;;;;;9.20;5.25;;;;;;;18.89;100.00;100466.47;5021340;28;20592;-62
2023/07/15 19:09:27;;;;;;;8.82;5.22;;;;;;;18.84;100.00;100475.22;5012548;28;20025;-63
2023/07/15 19:11:52;;;;;;;8.27;5.65;;;;;;;18.80;100.00;100476.13;5006884;28;20010;-63
2023/07/15 19:14:19;;;;;;;7.65;5.43;;;;;;;18.77;100.00;100473.53;5024957;28;20034;-63
2023/07/15 19:16:44;;;;;;;7.18;5.40;;;;;;;18.76;100.00;100470.94;5011637;28;20058;-63
2023/07/15 19:19:10;;;;;;;7.75;5.35;;;;;;;18.76;100.00;100465.69;5023993;28;20068;-63
2023/07/15 19:21:35;;;;;;;7.60;4.88;;;;;;;18.75;100.00;100467.44;5024364;28;20032;-63
2023/07/15 19:24:01;;;;;;;6.22;4.65;;;;;;;18.78;100.00;100461.31;5020173;28;20506;-64
2023/07/15 19:26:26;;;;;;;7.15;4.78;;;;;;;18.76;100.00;100463.94;5012609;28;20030;-63
2023/07/15 19:28:52;;;;;;;6.47;4.38;;;;;;;18.82;100.00;100463.00;5023084;28;20024;-62
2023/07/15 19:31:17;;;;;;;8.85;5.15;;;;;;;18.79;100.00;100471.78;5022889;28;20022;-63
2023/07/15 19:33:42;;;;;;;5.25;4.75;;;;;;;18.71;100.00;100473.56;5023275;28;20040;-63
2023/07/15 19:36:09;;;;;;;7.20;4.45;;;;;;;18.64;100.00;100483.25;5015818;28;20014;-63
2023/07/15 19:38:34;;;;;;;7.78;5.13;;;;;;;18.58;100.00;100483.31;5020518;28;20116;-63
2023/07/15 19:40:59;;;;;;;10.13;5.57;;;;;;;18.48;100.00;100499.09;5016133;28;20050;-63
2023/07/15 19:43:25;;;;;;;8.65;5.90;;;;;;;18.44;100.00;100502.63;5024415;28;20026;-63
2023/07/15 19:45:50;;;;;;;8.57;5.60;;;;;;;18.39;100.00;100504.41;5010823;28;20486;-63
2023/07/15 19:48:15;;;;;;;8.30;5.75;;;;;;;18.34;100.00;100514.94;5024123;28;20080;-62
2023/07/15 19:50:41;;;;;;;6.97;5.40;;;;;;;18.35;100.00;100521.91;5014303;28;20030;-63
2023/07/15 19:53:06;;;;;;;7.32;5.07;;;;;;;18.36;100.00;100530.66;4997862;28;20393;-63
2023/07/15 19:55:32;;;;;;;6.57;4.25;;;;;;;18.33;100.00;100541.19;5005670;28;20030;-63
2023/07/15 19:57:57;;;;;;;5.80;5.00;;;;;;;18.29;100.00;100544.69;5011340;28;20425;-62
2023/07/15 20:00:22;;;;;;;6.38;4.45;;;;;;;18.24;100.00;100545.56;5010284;28;20068;-63
2023/07/15 20:02:48;;;;;;;6.85;4.63;;;;;;;18.29;100.00;100536.81;4991958;28;20052;-63
2023/07/15 20:05:13;;;;;;;5.85;4.53;;;;;;;18.28;100.00;100529.81;5004715;28;20033;-63
2023/07/15 20:07:39;;;;;;;7.60;4.35;;;;;;;18.30;100.00;100531.56;4996958;28;20033;-65
2023/07/15 20:10:05;;;;;;;6.40;4.25;;;;;;;18.33;100.00;100528.06;5001554;28;20672;-61
2023/07/15 20:12:31;;;;;;;7.55;4.35;;;;;;;18.35;100.00;100534.16;5004704;28;20014;-61
2023/07/15 20:14:56;;;;;;;6.00;4.13;;;;;;;18.29;100.00;100529.81;4994187;28;20056;-61
2023/07/15 20:17:21;;;;;;;4.22;3.58;;;;;;;18.29;100.00;100540.31;4992410;28;20023;-62
2023/07/15 20:19:46;;;;;;;6.18;3.63;;;;;;;18.26;100.00;100537.69;4991777;28;20081;-62
2023/07/15 20:22:16;;;;;;;6.57;3.70;;;;;;;18.27;100.00;100535.94;4991343;28;20037;-62
2023/07/15 20:24:42;;;;;;;5.75;4.00;;;;;;;18.28;100.00;100537.69;4994649;28;20026;-61
2023/07/15 20:27:07;;;;;;;7.53;4.55;;;;;;;18.27;100.00;100549.94;4998526;28;20027;-62
2023/07/15 20:29:32;;;;;;;5.50;4.43;;;;;;;18.31;100.00;100548.16;5001178;28;20025;-62
2023/07/15 20:31:58;;;;;;;6.35;4.20;;;;;;;18.30;100.00;100542.03;5000839;28;20115;-61
2023/07/15 20:34:23;;;;;;;7.68;5.55;;;;;;;18.30;100.00;100559.53;5004171;28;20139;-62
2023/07/15 20:36:50;;;;;;;8.15;6.40;;;;;;;18.29;100.00;100555.16;5000325;28;20084;-61
2023/07/15 20:39:15;;;;;;;9.15;7.13;;;;;;;18.29;100.00;100561.28;5006249;28;20068;-62
2023/07/15 20:41:40;;;;;;;8.30;7.20;;;;;;;18.28;100.00;100563.91;4996725;28;20501;-61
2023/07/15 20:44:06;;;;;;;8.35;7.47;;;;;;;18.29;100.00;100566.53;5005340;28;20056;-62
2023/07/15 20:46:31;;;;;;;9.88;8.88;;;;;;;18.23;100.00;100572.69;4995735;28;20041;-62
2023/07/15 20:48:56;;;;;;;9.48;8.60;;;;;;;18.24;100.00;100568.31;4997714;28;20359;-63
2023/07/15 20:51:22;;;;;;;8.70;7.90;;;;;;;18.20;100.00;100572.69;4995763;28;20557;-62
2023/07/15 20:53:47;;;;;;;8.65;7.07;;;;;;;18.20;100.00;100587.53;4989439;28;20030;-62
2023/07/15 20:56:12;;;;;;;7.57;6.75;;;;;;;18.19;100.00;100591.03;4993007;28;20438;-62
2023/07/15 20:58:38;;;;;;;6.00;5.38;;;;;;;18.20;100.00;100588.44;4996291;28;20029;-62
2023/07/15 21:01:03;;;;;;;6.07;4.00;;;;;;;18.20;100.00;100592.78;5002472;28;20538;-61
2023/07/15 21:03:28;;;;;;;5.10;4.13;;;;;;;18.17;100.00;100598.91;5001314;28;20033;-61
2023/07/15 21:06:01;;;;;;;5.45;4.53;;;;;;;18.15;100.00;100595.41;5006753;28;20026;-61
2023/07/15 21:08:27;;;;;;;7.45;4.25;;;;;;;18.12;100.00;100598.91;4994812;28;20084;-62
2023/07/15 21:10:54;;;;;;;8.18;4.90;;;;;;;18.09;100.00;100609.41;4995804;28;20486;-63
2023/07/15 21:13:20;;;;;;;6.07;4.38;;;;;;;18.07;100.00;100607.66;4991181;28;20034;-61
2023/07/15 21:15:45;;;;;;;7.47;4.35;;;;;;;18.04;100.00;100612.91;5001843;28;20038;-61
2023/07/15 21:18:11;;;;;;;4.78;4.30;;;;;;;18.03;100.00;100616.38;4992434;28;20572;-62
2023/07/15 21:20:36;;;;;;;4.88;4.00;;;;;;;18.03;100.00;100613.78;5005039;28;20025;-61
2023/07/15 21:23:01;;;;;;;5.03;4.30;;;;;;;18.00;100.00;100618.16;5001385;28;20485;-63
2023/07/15 21:25:26;;;;;;;7.53;4.60;;;;;;;18.00;100.00;100622.53;5000548;28;20098;-62
2023/07/15 21:27:52;;;;;;;7.13;5.03;;;;;;;17.97;100.00;100627.78;4997584;28;20053;-61
2023/07/15 21:30:17;;;;;;;9.32;4.82;;;;;;;17.94;100.00;100631.28;5009217;28;20362;-62
2023/07/15 21:32:42;;;;;;;7.47;4.35;;;;;;;17.94;100.00;100644.38;4996127;28;20030;-63
2023/07/15 21:35:08;;;;;;;6.05;4.55;;;;;;;17.90;100.00;100653.13;5002468;28;20448;-62
2023/07/15 21:37:33;;;;;;;6.30;4.53;;;;;;;17.91;100.00;100654.88;4997902;28;20025;-63
2023/07/15 21:39:59;;;;;;;7.47;5.03;;;;;;;17.92;100.00;100663.63;4990631;28;20018;-63
2023/07/15 21:42:24;;;;;;;7.40;5.32;;;;;;;17.92;100.00;100656.59;4998177;28;20596;-62
2023/07/15 21:44:49;;;;;;;6.82;5.93;;;;;;;17.92;100.00;100667.09;5004870;28;20037;-62
2023/07/15 21:47:14;;;;;;;9.02;6.25;;;;;;;17.90;100.00;100663.59;5005922;28;20060;-62
2023/07/15 21:49:40;;;;;;;8.18;5.68;;;;;;;17.91;100.00;100665.34;4988609;28;20471;-63
2023/07/15 21:52:05;;;;;;;7.32;6.18;;;;;;;17.90;100.00;100663.59;4998901;28;20088;-62
2023/07/15 21:54:30;;;;;;;6.95;5.35;;;;;;;17.92;100.00;100650.53;4989261;28;20025;-62
2023/07/15 21:56:56;;;;;;;10.30;5.93;;;;;;;17.93;100.00;100647.00;5000418;28;20026;-62
2023/07/15 21:59:21;;;;;;;6.47;5.00;;;;;;;17.91;100.00;100652.25;4991296;28;20033;-63
2023/07/15 22:01:46;;;;;;;9.30;4.63;;;;;;;17.89;100.00;100659.25;4989514;28;20022;-63
2023/07/15 22:04:12;;;;;;;7.45;4.78;;;;;;;17.84;100.00;100663.63;4990361;28;20033;-61
2023/07/15 22:06:37;;;;;;;8.65;4.15;;;;;;;17.81;100.00;100663.63;4988251;28;20120;-62
2023/07/15 22:09:02;;;;;;;5.68;4.43;;;;;;;17.79;100.00;100662.75;4989659;28;20030;-61
2023/07/15 22:11:27;;;;;;;8.43;4.38;;;;;;;17.75;100.00;100665.34;4988131;28;20476;-61
2023/07/15 22:13:53;;;;;;;7.93;4.78;;;;;;;17.76;100.00;100669.75;4988607;28;20029;-61
2023/07/15 22:16:18;;;;;;;5.13;4.32;;;;;;;17.73;100.00;100669.75;4988431;28;20026;-62
2023/07/15 22:18:43;;;;;;;9.93;5.00;;;;;;;17.73;100.00;100672.38;4990694;28;20028;-61
2023/07/15 22:21:10;;;;;;;4.90;4.35;;;;;;;17.74;100.00;100684.59;4989402;28;20026;-62
2023/07/15 22:23:35;;;;;;;9.45;4.18;;;;;;;17.72;100.00;100688.94;5002132;28;20034;-62
2023/07/15 22:26:01;;;;;;;7.15;4.82;;;;;;;17.71;100.00;100688.94;4989216;28;20030;-63
2023/07/15 22:28:26;;;;;;;5.55;4.20;;;;;;;17.70;100.00;100677.59;4991284;28;20386;-62
2023/07/15 22:30:51;;;;;;;4.93;3.90;;;;;;;17.71;100.00;100679.34;4989817;28;20463;-61
2023/07/15 22:33:17;;;;;;;6.78;4.07;;;;;;;17.72;100.00;100685.47;4990669;28;20061;-62
2023/07/15 22:35:42;;;;;;;7.03;4.05;;;;;;;17.67;100.00;100677.59;4988925;28;20023;-62
2023/07/15 22:38:07;;;;;;;4.75;3.65;;;;;;;17.65;100.00;100684.56;4990769;28;20030;-62
2023/07/15 22:40:33;;;;;;;6.78;4.68;;;;;;;17.63;100.00;100687.19;5001472;28;20030;-62
2023/07/15 22:42:58;;;;;;;5.85;4.05;;;;;;;17.62;100.00;100695.06;5005011;28;20033;-62
2023/07/15 22:45:23;;;;;;;7.22;4.30;;;;;;;17.62;100.00;100695.06;4995500;28;20022;-62
2023/07/15 22:47:48;;;;;;;7.40;4.47;;;;;;;17.61;100.00;100694.19;4997051;28;20049;-62
2023/07/15 22:50:14;;;;;;;6.28;4.60;;;;;;;17.58;100.00;100682.81;4997558;28;20387;-61
2023/07/15 22:52:39;;;;;;;7.28;4.68;;;;;;;17.57;100.00;100683.72;4997373;28;20663;-63
2023/07/15 22:55:05;;;;;;;5.95;4.38;;;;;;;17.53;100.00;100685.47;4997335;28;20026;-63
2023/07/15 22:57:31;;;;;;;7.00;4.93;;;;;;;17.50;100.00;100696.78;4997770;28;20423;-62
2023/07/15 22:59:56;;;;;;;6.60;4.72;;;;;;;17.42;100.00;100697.66;4996845;28;20026;-62
2023/07/15 23:02:21;;;;;;;6.85;5.43;;;;;;;17.37;100.00;100705.53;4997300;28;20144;-63
2023/07/15 23:04:48;;;;;;;7.93;5.28;;;;;;;17.35;100.00;100713.38;5000500;28;20060;-62
2023/07/15 23:07:14;;;;;;;9.18;5.22;;;;;;;17.26;100.00;100716.84;4999726;28;20152;-62
2023/07/15 23:09:39;;;;;;;10.05;5.03;;;;;;;17.23;100.00;100715.97;4998720;28;21100;-61
2023/07/15 23:12:05;;;;;;;5.95;4.50;;;;;;;17.13;100.00;100717.69;5000236;28;20018;-62
2023/07/15 23:14:30;;;;;;;5.43;3.70;;;;;;;17.05;100.00;100728.13;4987798;28;20077;-62
2023/07/15 23:16:56;;;;;;;7.72;3.67;;;;;;;16.98;100.00;100739.44;5000467;28;20022;-62
2023/07/15 23:19:21;;;;;;;12.70;3.55;;;;;;;16.88;100.00;100733.28;4988130;28;20039;-61
2023/07/15 23:21:46;;;;;;;6.63;3.03;;;;;;;16.86;100.00;100730.66;4989920;28;20490;-62
2023/07/15 23:24:12;;;;;;;7.15;3.47;;;;;;;16.76;100.00;100724.53;5007360;28;20499;-62
2023/07/15 23:26:38;;;;;;;5.05;3.03;;;;;;;16.69;100.00;100717.50;5005892;28;20081;-61
2023/07/15 23:29:03;;;;;;;4.63;2.70;;;;;;;16.61;100.00;100724.41;5009567;28;20035;-62
2023/07/15 23:31:29;;;;;;;6.45;3.15;;;;;;;16.56;100.00;100727.91;5008081;28;20113;-61
2023/07/15 23:33:54;;;;;;;7.90;2.53;;;;;;;16.50;100.00;100730.47;4992007;28;20027;-62
2023/07/15 23:36:19;;;;;;;9.40;2.92;;;;;;;16.39;100.00;100735.66;5004484;28;20029;-63
2023/07/15 23:38:45;;;;;;;4.82;2.47;;;;;;;16.38;100.00;100735.63;4992366;28;20053;-61
2023/07/15 23:41:10;;;;;;;7.55;3.40;;;;;;;16.22;100.00;100743.38;4992758;28;20132;-62
2023/07/15 23:43:36;;;;;;;7.03;2.65;;;;;;;16.11;100.00;100751.16;4999221;28;20037;-61
2023/07/15 23:46:01;;;;;;;5.07;2.63;;;;;;;16.10;100.00;100743.31;4995721;28;20138;-62
2023/07/15 23:48:26;;;;;;;5.18;2.42;;;;;;;16.03;100.00;100748.47;4990906;28;20026;-62
2023/07/15 23:50:52;;;;;;;6.00;2.45;;;;;;;15.92;100.00;100748.34;4991098;28;20493;-62
2023/07/15 23:53:17;;;;;;;4.75;2.70;;;;;;;15.83;100.00;100746.53;4991046;28;20581;-61
2023/07/15 23:55:42;;;;;;;5.53;2.83;;;;;;;15.78;100.00;100743.00;4992522;28;20026;-62
2023/07/15 23:58:07;;;;;;;7.00;2.40;;;;;;;15.70;100.00;100750.75;5009713;28;20025;-61
